Time;durP1;ratioP1;P1;durP2;ratioP2;P2;SDS_P1;SDS_P2;PMS_P1;PMS_P2;Temp;Humidity;BMP_temperature;BMP_pressure;BME280_temperature;BME280_humidity;BME280_pressure;Samples;Min_cycle;Max_cycle;Signal;HPM_P1;HPM_P2
2021/10/23 00:00:17;;;;;;;12.00;8.93;;;9.70;97.10;;;;;;5096376;28;20472;-69
2021/10/23 00:02:44;;;;;;;14.90;9.53;;;9.70;97.40;;;;;;5096169;28;20489;-70
2021/10/23 00:05:10;;;;;;;14.97;9.77;;;9.70;97.70;;;;;;5096305;28;20447;-70
2021/10/23 00:07:37;;;;;;;13.63;10.17;;;9.70;97.70;;;;;;5096271;28;20813;-70
2021/10/23 00:10:05;;;;;;;15.80;9.70;;;9.80;97.90;;;;;;5096245;28;20456;-69
2021/10/23 00:12:33;;;;;;;13.50;10.53;;;9.70;97.90;;;;;;5096106;28;20446;-69
2021/10/23 00:15:00;;;;;;;15.27;9.73;;;9.80;98.00;;;;;;5096043;28;20448;-69
2021/10/23 00:17:27;;;;;;;13.43;9.77;;;9.70;97.90;;;;;;5095947;28;20482;-69
2021/10/23 00:19:56;;;;;;;10.63;9.53;;;9.80;98.00;;;;;;5095892;28;20463;-70
2021/10/23 00:22:23;;;;;;;14.90;10.13;;;9.80;98.00;;;;;;5095508;28;20447;-70
2021/10/23 00:24:50;;;;;;;17.00;9.90;;;9.90;97.90;;;;;;5096495;28;20814;-70
2021/10/23 00:27:16;;;;;;;20.40;10.90;;;9.90;97.90;;;;;;5095819;28;20440;-70
2021/10/23 00:29:44;;;;;;;13.20;10.13;;;9.90;97.80;;;;;;5095706;28;20468;-69
2021/10/23 00:32:11;;;;;;;11.73;10.37;;;9.90;97.90;;;;;;5095507;28;20938;-69
2021/10/23 00:34:38;;;;;;;18.27;11.30;;;9.90;97.90;;;;;;5095576;28;20424;-69
2021/10/23 00:37:05;;;;;;;15.20;10.70;;;9.90;98.00;;;;;;5095261;28;20490;-69
2021/10/23 00:39:33;;;;;;;17.90;11.57;;;9.90;98.10;;;;;;5095624;28;20826;-69
2021/10/23 00:41:59;;;;;;;16.77;12.17;;;9.90;98.10;;;;;;5095501;28;20820;-69
2021/10/23 00:44:35;;;;;;;16.00;11.73;;;10.00;97.60;;;;;;5095374;28;20929;-69
2021/10/23 00:47:04;;;;;;;15.13;11.23;;;9.90;98.30;;;;;;5095464;28;20436;-69
2021/10/23 00:49:32;;;;;;;14.83;11.50;;;9.90;98.30;;;;;;5094962;28;20992;-69
2021/10/23 00:52:00;;;;;;;20.60;12.50;;;9.90;98.30;;;;;;5095004;28;20444;-69
2021/10/23 00:54:27;;;;;;;17.53;13.00;;;9.90;98.60;;;;;;5095977;28;20497;-69
2021/10/23 00:56:55;;;;;;;16.53;13.70;;;9.90;98.70;;;;;;5095162;28;20517;-69
2021/10/23 00:59:22;;;;;;;20.63;13.17;;;9.90;98.70;;;;;;5095112;28;20829;-69
2021/10/23 01:01:49;;;;;;;19.30;12.97;;;9.90;98.90;;;;;;5094816;28;20933;-70
2021/10/23 01:04:19;;;;;;;17.53;13.00;;;9.90;99.00;;;;;;5095077;28;20456;-70
2021/10/23 01:06:46;;;;;;;16.10;13.07;;;9.90;99.00;;;;;;5095145;28;20440;-70
2021/10/23 01:09:14;;;;;;;18.37;14.27;;;9.90;99.00;;;;;;5095027;28;20463;-69
2021/10/23 01:11:41;;;;;;;20.80;14.50;;;9.90;99.10;;;;;;5094656;28;20454;-69
2021/10/23 01:14:12;;;;;;;17.00;13.33;;;10.00;98.60;;;;;;5094699;28;20937;-69
2021/10/23 01:16:41;;;;;;;22.77;14.43;;;10.00;98.50;;;;;;5094877;28;20509;-70
2021/10/23 01:19:08;;;;;;;20.97;14.20;;;10.00;98.50;;;;;;5094743;28;20464;-69
2021/10/23 01:21:36;;;;;;;20.67;14.40;;;10.00;98.50;;;;;;5094634;28;20476;-70
2021/10/23 01:24:04;;;;;;;21.77;12.97;;;10.00;98.50;;;;;;5094884;28;20439;-70
2021/10/23 01:26:30;;;;;;;19.70;14.23;;;10.10;98.50;;;;;;5094827;28;20970;-70
2021/10/23 01:28:57;;;;;;;23.70;14.13;;;10.10;98.50;;;;;;5094815;28;20451;-69
2021/10/23 01:31:27;;;;;;;21.03;14.60;;;10.10;98.50;;;;;;5094546;28;20901;-70
2021/10/23 01:33:53;;;;;;;20.70;14.67;;;10.10;98.40;;;;;;5094562;28;20440;-70
2021/10/23 01:36:20;;;;;;;19.03;14.60;;;10.10;98.40;;;;;;5094074;28;20480;-70
2021/10/23 01:38:49;;;;;;;25.03;15.10;;;10.10;98.30;;;;;;5094483;28;20428;-69
2021/10/23 01:41:16;;;;;;;19.20;15.13;;;10.10;98.70;;;;;;5094565;28;20443;-69
2021/10/23 01:43:43;;;;;;;19.50;16.27;;;10.10;98.40;;;;;;5094602;28;20789;-69
2021/10/23 01:46:10;;;;;;;23.03;14.73;;;10.10;98.60;;;;;;5094419;28;20440;-70
2021/10/23 01:48:37;;;;;;;20.17;14.67;;;10.10;98.50;;;;;;5094321;28;20530;-70
2021/10/23 01:51:05;;;;;;;22.07;15.10;;;10.20;98.50;;;;;;5094104;28;20471;-69
2021/10/23 01:53:32;;;;;;;21.80;15.70;;;10.10;98.40;;;;;;5094221;28;20469;-69
2021/10/23 01:56:00;;;;;;;19.80;16.30;;;10.20;98.50;;;;;;5094056;28;20197;-70
2021/10/23 01:58:27;;;;;;;19.87;16.33;;;10.20;98.50;;;;;;5093750;28;20949;-70
2021/10/23 02:00:54;;;;;;;27.50;15.57;;;10.20;98.30;;;;;;5094082;28;20472;-69
2021/10/23 02:03:20;;;;;;;20.47;15.90;;;10.20;98.30;;;;;;5094123;28;20451;-70
2021/10/23 02:05:47;;;;;;;29.70;16.40;;;10.20;98.20;;;;;;5093977;28;20821;-70
2021/10/23 02:08:14;;;;;;;21.27;16.87;;;10.20;98.30;;;;;;5094061;28;20896;-70
2021/10/23 02:10:41;;;;;;;21.50;17.47;;;10.20;98.10;;;;;;5093816;28;20464;-69
2021/10/23 02:13:09;;;;;;;23.70;17.43;;;10.20;98.20;;;;;;5093948;28;20838;-69
2021/10/23 02:15:36;;;;;;;23.10;18.40;;;10.10;98.10;;;;;;5093986;28;20455;-69
2021/10/23 02:18:03;;;;;;;21.27;16.20;;;10.10;98.30;;;;;;5093773;28;20478;-69
2021/10/23 02:20:33;;;;;;;27.70;17.87;;;10.10;98.40;;;;;;5093767;28;20482;-70
2021/10/23 02:23:00;;;;;;;24.60;19.17;;;10.10;98.50;;;;;;5093495;28;20463;-70
2021/10/23 02:25:27;;;;;;;24.00;17.37;;;10.00;98.60;;;;;;5093790;28;20447;-70
2021/10/23 02:27:54;;;;;;;25.60;18.33;;;10.00;98.60;;;;;;5093772;28;20436;-70
2021/10/23 02:30:22;;;;;;;26.87;18.03;;;10.10;98.70;;;;;;5093629;28;20471;-69
2021/10/23 02:32:52;;;;;;;29.97;22.10;;;10.10;98.70;;;;;;5092545;28;20977;-69
2021/10/23 02:35:19;;;;;;;24.70;19.50;;;10.10;98.70;;;;;;5093646;28;20530;-69
2021/10/23 02:37:45;;;;;;;24.20;19.93;;;10.00;98.50;;;;;;5093166;28;20483;-69
2021/10/23 02:40:13;;;;;;;24.27;18.90;;;10.00;98.50;;;;;;5093265;28;20478;-69
2021/10/23 02:42:39;;;;;;;27.90;19.53;;;10.00;98.50;;;;;;5093315;28;20526;-70
2021/10/23 02:45:08;;;;;;;25.33;18.83;;;9.90;99.10;;;;;;5093595;28;20447;-71
2021/10/23 02:47:37;;;;;;;28.00;20.43;;;9.90;99.20;;;;;;5096830;28;20440;-70
2021/10/23 02:50:04;;;;;;;25.40;20.40;;;10.00;98.70;;;;;;5098039;28;20464;-69
2021/10/23 02:52:31;;;;;;;25.97;18.80;;;9.90;99.10;;;;;;5097551;28;20817;-71
2021/10/23 02:54:57;;;;;;;29.10;20.10;;;10.00;98.60;;;;;;5097675;28;20439;-70
2021/10/23 02:57:24;;;;;;;31.30;20.37;;;10.00;98.50;;;;;;5097698;28;20476;-70
2021/10/23 02:59:51;;;;;;;30.33;19.33;;;10.00;98.40;;;;;;5097522;28;20466;-69
2021/10/23 03:02:17;;;;;;;27.33;18.93;;;10.00;98.40;;;;;;5097521;28;20444;-69
2021/10/23 03:04:46;;;;;;;26.40;19.27;;;10.10;98.40;;;;;;5097200;28;20945;-69
2021/10/23 03:07:12;;;;;;;29.80;19.97;;;10.10;98.40;;;;;;5097356;28;20856;-69
2021/10/23 03:09:39;;;;;;;25.70;20.80;;;10.20;98.40;;;;;;5097022;28;20981;-69
2021/10/23 03:12:06;;;;;;;27.33;20.70;;;10.20;98.30;;;;;;5097439;28;20526;-71
2021/10/23 03:14:33;;;;;;;26.33;20.77;;;10.20;98.10;;;;;;5097359;28;20460;-70
2021/10/23 03:17:00;;;;;;;28.20;21.80;;;10.20;97.90;;;;;;5097056;28;20837;-70
2021/10/23 03:19:27;;;;;;;29.83;20.67;;;10.20;97.90;;;;;;5096990;28;20463;-69
2021/10/23 03:21:55;;;;;;;26.47;19.43;;;10.20;97.90;;;;;;5096703;28;20958;-69
2021/10/23 03:24:21;;;;;;;27.17;21.70;;;10.20;97.90;;;;;;5096952;28;20448;-69
2021/10/23 03:26:48;;;;;;;33.10;20.87;;;10.30;98.10;;;;;;5096930;28;20433;-71
2021/10/23 03:29:15;;;;;;;30.67;20.33;;;10.30;98.10;;;;;;5096807;28;20466;-69
2021/10/23 03:31:41;;;;;;;26.43;19.60;;;10.30;97.90;;;;;;5096838;28;20472;-69
2021/10/23 03:34:08;;;;;;;28.03;19.77;;;10.30;97.80;;;;;;5096807;28;20451;-69
2021/10/23 03:36:35;;;;;;;23.80;20.00;;;10.30;97.50;;;;;;5096475;28;21031;-69
2021/10/23 03:39:04;;;;;;;25.07;20.23;;;10.30;97.50;;;;;;5096322;28;20957;-69
2021/10/23 03:41:31;;;;;;;25.17;20.17;;;10.30;97.50;;;;;;5096661;28;20440;-69
2021/10/23 03:43:58;;;;;;;30.57;20.50;;;10.30;97.50;;;;;;5096568;28;20460;-69
2021/10/23 03:46:25;;;;;;;32.77;21.63;;;10.40;97.50;;;;;;5096581;28;20428;-69
2021/10/23 03:48:51;;;;;;;25.80;20.43;;;10.40;97.50;;;;;;5096417;28;20823;-69
2021/10/23 03:51:18;;;;;;;28.80;20.47;;;10.40;97.50;;;;;;5096408;28;20446;-69
2021/10/23 03:53:45;;;;;;;23.27;19.20;;;10.40;97.50;;;;;;5096041;28;20451;-69
2021/10/23 03:56:13;;;;;;;28.17;21.37;;;10.40;97.60;;;;;;5096351;28;20482;-69
2021/10/23 03:58:40;;;;;;;22.40;18.87;;;10.50;97.60;;;;;;5095340;28;20878;-69
2021/10/23 04:01:06;;;;;;;25.73;19.00;;;10.50;97.50;;;;;;5096134;28;20471;-69
2021/10/23 04:03:33;;;;;;;29.03;20.47;;;10.60;97.40;;;;;;5096245;28;20428;-69
2021/10/23 04:06:00;;;;;;;25.17;19.40;;;10.60;97.20;;;;;;5096153;28;20452;-69
2021/10/23 04:08:27;;;;;;;23.60;19.60;;;10.60;97.20;;;;;;5096155;28;20435;-69
2021/10/23 04:10:53;;;;;;;21.90;19.50;;;10.60;97.10;;;;;;5095988;28;20487;-69
2021/10/23 04:13:21;;;;;;;24.77;19.30;;;10.60;97.10;;;;;;5096035;28;20435;-70
2021/10/23 04:15:49;;;;;;;25.03;19.57;;;10.60;96.90;;;;;;5095760;28;20432;-70
2021/10/23 04:18:16;;;;;;;22.30;18.43;;;10.60;96.70;;;;;;5095835;28;20479;-70
2021/10/23 04:20:42;;;;;;;28.37;20.90;;;10.50;96.50;;;;;;5095545;28;21007;-69
2021/10/23 04:23:09;;;;;;;24.30;18.00;;;10.50;96.50;;;;;;5095816;28;20444;-69
2021/10/23 04:25:36;;;;;;;22.80;18.03;;;10.40;96.30;;;;;;5095817;28;20467;-69
2021/10/23 04:28:03;;;;;;;29.30;18.50;;;10.40;96.30;;;;;;5095777;28;20847;-69
2021/10/23 04:30:31;;;;;;;24.23;19.37;;;10.30;96.20;;;;;;5095616;28;20498;-69
2021/10/23 04:32:57;;;;;;;21.23;15.90;;;10.30;96.10;;;;;;5095690;28;20439;-69
2021/10/23 04:35:24;;;;;;;20.20;17.47;;;10.30;96.00;;;;;;5095351;28;20898;-69
2021/10/23 04:37:51;;;;;;;23.40;16.67;;;10.30;95.90;;;;;;5095141;28;20475;-70
2021/10/23 04:40:18;;;;;;;21.63;16.87;;;10.30;95.70;;;;;;5096145;28;20495;-70
2021/10/23 04:42:45;;;;;;;20.03;16.40;;;10.30;95.70;;;;;;5095490;28;20448;-70
2021/10/23 04:45:12;;;;;;;24.50;18.20;;;10.30;95.60;;;;;;5096240;28;20440;-70
2021/10/23 04:47:40;;;;;;;25.43;18.77;;;10.30;95.50;;;;;;5095350;28;20447;-70
2021/10/23 04:50:07;;;;;;;23.60;19.47;;;10.30;95.40;;;;;;5095236;28;20487;-69
2021/10/23 04:52:34;;;;;;;25.03;17.87;;;10.20;95.30;;;;;;5094998;28;20435;-70
2021/10/23 04:55:00;;;;;;;23.37;17.07;;;10.20;95.50;;;;;;5095260;28;20452;-70
2021/10/23 04:57:27;;;;;;;26.40;19.00;;;10.20;95.40;;;;;;5095113;28;20476;-70
2021/10/23 04:59:54;;;;;;;26.70;18.00;;;10.20;95.40;;;;;;5095070;28;20471;-69
2021/10/23 05:02:21;;;;;;;28.37;19.20;;;10.20;95.40;;;;;;5095105;28;20448;-69
2021/10/23 05:04:49;;;;;;;24.40;18.50;;;10.10;95.40;;;;;;5095049;28;20440;-69
2021/10/23 05:07:15;;;;;;;26.93;19.37;;;10.00;95.40;;;;;;5094664;28;20432;-69
2021/10/23 05:09:42;;;;;;;27.07;19.60;;;10.00;95.60;;;;;;5093977;28;20460;-70
2021/10/23 05:12:09;;;;;;;30.03;20.10;;;9.90;96.20;;;;;;5094864;28;20862;-70
2021/10/23 05:14:35;;;;;;;21.03;17.60;;;9.80;96.30;;;;;;5094826;28;20440;-70
2021/10/23 05:17:02;;;;;;;24.60;19.40;;;9.90;96.50;;;;;;5094407;28;20952;-70
2021/10/23 05:19:29;;;;;;;26.77;18.70;;;9.80;96.60;;;;;;5094359;28;21012;-69
2021/10/23 05:21:58;;;;;;;30.80;19.53;;;9.80;96.70;;;;;;5094712;28;20447;-70
2021/10/23 05:24:25;;;;;;;27.37;18.70;;;9.90;96.80;;;;;;5094690;28;20424;-70
2021/10/23 05:26:52;;;;;;;27.97;19.20;;;9.90;96.70;;;;;;5094340;28;20491;-70
2021/10/23 05:29:18;;;;;;;20.20;17.40;;;9.90;96.60;;;;;;5094467;28;20487;-69
2021/10/23 05:31:46;;;;;;;21.73;16.53;;;9.90;96.60;;;;;;5094565;28;20467;-70
2021/10/23 05:34:12;;;;;;;22.13;17.50;;;9.90;96.50;;;;;;5094203;28;20451;-70
2021/10/23 05:36:39;;;;;;;31.50;18.07;;;9.90;96.40;;;;;;5093975;28;20820;-70
2021/10/23 05:39:07;;;;;;;22.17;17.50;;;9.90;96.40;;;;;;5093923;28;20490;-69
2021/10/23 05:41:34;;;;;;;23.53;17.27;;;9.90;96.40;;;;;;5094400;28;20435;-69
2021/10/23 05:44:01;;;;;;;19.90;16.87;;;9.90;96.30;;;;;;5094251;28;20444;-69
2021/10/23 05:46:27;;;;;;;28.13;18.30;;;9.90;96.10;;;;;;5094290;28;20473;-69
2021/10/23 05:48:54;;;;;;;24.70;18.63;;;9.80;96.10;;;;;;5094104;28;20450;-69
2021/10/23 05:51:21;;;;;;;24.73;17.00;;;9.80;96.20;;;;;;5094111;28;20535;-69
2021/10/23 05:53:48;;;;;;;28.33;16.93;;;9.80;96.20;;;;;;5094054;28;20808;-70
2021/10/23 05:56:16;;;;;;;22.17;15.80;;;9.80;96.20;;;;;;5094084;28;20466;-69
2021/10/23 05:58:42;;;;;;;23.43;16.70;;;9.80;96.10;;;;;;5093952;28;20480;-69
2021/10/23 06:01:09;;;;;;;17.33;13.87;;;9.80;96.00;;;;;;5093910;28;20474;-69
2021/10/23 06:03:39;;;;;;;18.57;15.27;;;9.90;95.80;;;;;;5094044;28;20444;-70
2021/10/23 06:06:08;;;;;;;21.33;16.67;;;9.90;95.70;;;;;;5093961;28;20471;-69
2021/10/23 06:08:36;;;;;;;23.07;16.50;;;9.90;95.60;;;;;;5093929;28;20448;-69
2021/10/23 06:11:03;;;;;;;21.50;14.47;;;9.90;95.60;;;;;;5093757;28;20460;-69
2021/10/23 06:13:33;;;;;;;20.70;15.47;;;9.90;95.60;;;;;;5093774;28;20444;-69
2021/10/23 06:16:00;;;;;;;22.00;17.10;;;9.90;95.60;;;;;;5093788;28;20444;-69
2021/10/23 06:18:26;;;;;;;18.17;15.90;;;9.90;95.60;;;;;;5093353;28;20985;-69
2021/10/23 06:20:53;;;;;;;20.50;16.50;;;9.90;95.90;;;;;;5093447;28;20468;-69
2021/10/23 06:23:20;;;;;;;22.33;17.53;;;10.00;95.10;;;;;;5093672;28;20447;-69
2021/10/23 06:25:46;;;;;;;25.53;17.10;;;10.00;95.20;;;;;;5093391;28;20929;-70
2021/10/23 06:28:13;;;;;;;23.27;17.73;;;10.10;95.40;;;;;;5093637;28;20443;-70
2021/10/23 06:30:41;;;;;;;25.50;18.90;;;10.10;95.40;;;;;;5093233;28;20471;-69
2021/10/23 06:33:08;;;;;;;22.67;18.20;;;10.10;95.50;;;;;;5093646;28;20455;-70
2021/10/23 06:35:34;;;;;;;21.33;18.27;;;10.20;95.70;;;;;;5093710;28;20447;-70
2021/10/23 06:38:03;;;;;;;22.90;17.17;;;10.20;95.80;;;;;;5093123;28;20490;-70
2021/10/23 06:40:30;;;;;;;28.80;19.17;;;10.20;95.80;;;;;;5093513;28;20463;-69
2021/10/23 06:42:57;;;;;;;25.27;19.70;;;10.20;95.90;;;;;;5093225;28;20450;-69
2021/10/23 06:45:23;;;;;;;29.00;20.40;;;10.30;95.90;;;;;;5093428;28;20783;-69
2021/10/23 06:47:52;;;;;;;32.07;19.40;;;10.30;95.90;;;;;;5093482;28;20443;-69
2021/10/23 06:50:19;;;;;;;23.97;18.97;;;10.30;96.00;;;;;;5093355;28;20479;-69
2021/10/23 06:52:46;;;;;;;28.97;18.60;;;10.40;96.10;;;;;;5093416;28;20447;-70
2021/10/23 06:55:12;;;;;;;26.70;18.90;;;10.40;96.10;;;;;;5093333;28;20443;-70
2021/10/23 06:57:39;;;;;;;31.90;21.53;;;10.40;96.10;;;;;;5093204;28;20475;-69
2021/10/23 07:00:08;;;;;;;30.60;21.70;;;10.40;96.20;;;;;;5093832;28;20490;-69
2021/10/23 07:02:39;;;;;;;27.70;20.70;;;10.50;96.30;;;;;;5093065;28;20945;-69
2021/10/23 07:05:10;;;;;;;31.97;21.60;;;10.50;96.30;;;;;;5093209;28;20444;-69
2021/10/23 07:07:37;;;;;;;30.40;22.07;;;10.50;96.30;;;;;;5093345;28;20475;-69
2021/10/23 07:10:04;;;;;;;30.93;22.57;;;10.60;96.40;;;;;;5093174;28;20471;-69
2021/10/23 07:12:31;;;;;;;30.00;20.73;;;10.60;96.30;;;;;;5093252;28;20443;-70
2021/10/23 07:14:57;;;;;;;30.57;21.60;;;10.70;96.30;;;;;;5093142;28;20447;-70
2021/10/23 07:17:24;;;;;;;32.10;21.10;;;10.70;96.20;;;;;;5093143;28;20439;-70
2021/10/23 07:19:51;;;;;;;26.60;21.23;;;10.80;96.20;;;;;;5093064;28;20463;-69
2021/10/23 07:22:20;;;;;;;31.60;20.90;;;10.80;96.00;;;;;;5092860;28;20535;-70
2021/10/23 07:24:47;;;;;;;28.67;20.10;;;10.90;95.90;;;;;;5093648;28;20428;-69
2021/10/23 07:27:14;;;;;;;28.40;21.07;;;10.90;95.80;;;;;;5094359;28;20440;-69
2021/10/23 07:29:40;;;;;;;32.53;20.03;;;10.90;95.80;;;;;;5093449;28;20482;-69
2021/10/23 07:32:08;;;;;;;25.50;20.37;;;11.00;95.90;;;;;;5092834;28;20924;-69
2021/10/23 07:34:34;;;;;;;29.97;20.70;;;11.10;96.00;;;;;;5096432;28;20440;-69
2021/10/23 07:37:02;;;;;;;24.97;20.20;;;11.10;96.00;;;;;;5096437;28;20458;-69
2021/10/23 07:39:30;;;;;;;36.40;20.70;;;11.10;95.70;;;;;;5096706;28;20483;-69
2021/10/23 07:41:57;;;;;;;29.60;20.97;;;11.20;95.70;;;;;;5096687;28;20841;-69
2021/10/23 07:44:23;;;;;;;27.33;19.70;;;11.20;95.70;;;;;;5096620;28;20448;-69
2021/10/23 07:46:50;;;;;;;29.43;20.20;;;11.30;95.80;;;;;;5096216;28;20929;-69
2021/10/23 07:49:17;;;;;;;30.07;18.87;;;11.40;95.80;;;;;;5096387;28;20463;-69
2021/10/23 07:51:43;;;;;;;31.23;20.80;;;11.40;95.80;;;;;;5096750;28;20448;-69
2021/10/23 07:54:11;;;;;;;27.33;19.53;;;11.50;95.60;;;;;;5096422;28;20440;-69
2021/10/23 07:56:41;;;;;;;23.20;19.60;;;11.60;95.20;;;;;;5096120;28;20438;-69
2021/10/23 07:59:07;;;;;;;28.13;20.17;;;11.60;94.70;;;;;;5096292;28;20487;-69
2021/10/23 08:01:34;;;;;;;24.70;19.20;;;11.60;94.70;;;;;;5096337;28;20830;-70
2021/10/23 08:04:01;;;;;;;23.90;18.73;;;11.70;94.70;;;;;;5096205;28;20448;-70
2021/10/23 08:06:28;;;;;;;23.70;19.13;;;11.80;94.60;;;;;;5096388;28;20428;-69
2021/10/23 08:08:55;;;;;;;24.50;20.03;;;11.80;94.40;;;;;;5095774;28;20857;-69
2021/10/23 08:11:22;;;;;;;21.70;18.30;;;11.90;94.30;;;;;;5096104;28;20761;-69
2021/10/23 08:13:51;;;;;;;28.90;18.73;;;12.00;94.20;;;;;;5095830;28;21011;-69
2021/10/23 08:16:18;;;;;;;23.60;17.90;;;12.10;94.00;;;;;;5095776;28;20905;-69
2021/10/23 08:18:45;;;;;;;21.37;18.07;;;12.10;93.80;;;;;;5095966;28;20468;-70
2021/10/23 08:21:25;;;;;;;25.53;17.77;;;12.20;94.00;;;;;;5095879;28;20459;-70
2021/10/23 08:29:39;;;;;;;23.50;17.47;;;12.50;93.70;;;;;;5094475;28;20482;-71
2021/10/23 08:32:06;;;;;;;23.37;17.33;;;12.60;93.20;;;;;;5095706;28;20511;-71
2021/10/23 08:34:32;;;;;;;21.87;16.50;;;12.60;92.60;;;;;;5095631;28;20444;-71
2021/10/23 08:36:59;;;;;;;23.00;17.13;;;12.70;92.80;;;;;;5095345;28;20454;-71
2021/10/23 08:39:26;;;;;;;22.03;16.80;;;12.80;93.00;;;;;;5095848;28;20479;-70
2021/10/23 08:41:53;;;;;;;23.07;17.10;;;12.80;92.80;;;;;;5095410;28;20446;-70
2021/10/23 08:44:22;;;;;;;22.13;16.20;;;12.90;92.80;;;;;;5095379;28;20444;-71
2021/10/23 08:46:51;;;;;;;19.50;15.53;;;13.00;92.90;;;;;;5095391;28;20447;-71
2021/10/23 08:49:18;;;;;;;17.87;15.93;;;13.00;92.60;;;;;;5095043;28;20991;-70
2021/10/23 08:51:45;;;;;;;21.77;15.67;;;13.10;92.00;;;;;;5095042;28;20451;-70
2021/10/23 08:54:13;;;;;;;20.90;15.70;;;13.10;91.50;;;;;;5095318;28;20432;-70
2021/10/23 08:56:40;;;;;;;19.40;17.40;;;13.10;91.30;;;;;;5095266;28;20858;-70
2021/10/23 08:59:07;;;;;;;21.40;15.67;;;13.00;91.50;;;;;;5095312;28;20500;-70
2021/10/23 09:01:34;;;;;;;23.33;16.03;;;13.10;91.70;;;;;;5095099;28;20440;-70
2021/10/23 09:04:02;;;;;;;20.40;15.30;;;13.20;92.00;;;;;;5094806;28;20451;-77
2021/10/23 09:06:31;;;;;;;22.23;16.17;;;13.40;91.50;;;;;;5095214;28;20440;-77
2021/10/23 09:09:04;;;;;;;23.00;16.80;;;13.40;91.10;;;;;;5096051;28;20451;-77
2021/10/23 09:11:32;;;;;;;17.40;14.63;;;13.50;91.00;;;;;;5096486;28;20467;-77
2021/10/23 09:14:20;;;;;;;20.20;15.07;;;13.60;91.00;;;;;;5095868;28;20804;-77
2021/10/23 09:16:47;;;;;;;20.10;15.73;;;13.60;90.60;;;;;;5095454;28;20450;-77
2021/10/23 09:19:15;;;;;;;21.30;15.60;;;13.60;90.50;;;;;;5095227;28;20488;-76
2021/10/23 09:21:42;;;;;;;17.07;15.10;;;13.70;90.10;;;;;;5094937;28;20450;-77
2021/10/23 09:24:21;;;;;;;16.07;14.37;;;13.70;90.20;;;;;;5094781;28;20812;-77
2021/10/23 09:26:50;;;;;;;18.87;15.00;;;13.90;90.20;;;;;;5094446;28;20897;-77
2021/10/23 09:29:19;;;;;;;17.57;14.70;;;14.00;90.00;;;;;;5095255;28;20485;-75
2021/10/23 09:31:47;;;;;;;18.00;14.60;;;14.00;88.80;;;;;;5095328;28;20473;-76
2021/10/23 09:34:19;;;;;;;19.97;14.80;;;14.10;89.80;;;;;;5094615;28;20470;-76
2021/10/23 09:36:47;;;;;;;23.40;14.47;;;14.20;89.50;;;;;;5094276;28;20463;-71
2021/10/23 09:39:29;;;;;;;14.77;12.80;;;14.10;88.20;;;;;;5093970;28;20920;-70
2021/10/23 09:42:15;;;;;;;19.90;12.90;;;14.30;88.60;;;;;;5094561;28;20842;-71
2021/10/23 09:45:00;;;;;;;16.90;13.00;;;14.30;87.20;;;;;;5094390;28;20428;-71
2021/10/23 09:47:29;;;;;;;18.23;15.20;;;14.30;87.70;;;;;;5094355;28;20478;-71
2021/10/23 09:50:15;;;;;;;18.97;15.23;;;14.30;87.40;;;;;;5094245;28;20528;-70
2021/10/23 09:53:01;;;;;;;17.30;13.57;;;14.30;87.60;;;;;;5094285;28;20463;-71
2021/10/23 09:55:29;;;;;;;16.70;13.93;;;14.40;87.20;;;;;;5093913;28;20436;-71
2021/10/23 09:58:15;;;;;;;17.00;13.90;;;14.40;88.00;;;;;;5094044;28;20440;-71
2021/10/23 10:01:00;;;;;;;18.43;15.07;;;14.40;87.00;;;;;;5094064;28;20459;-71
2021/10/23 10:03:37;;;;;;;19.50;14.43;;;14.10;88.80;;;;;;5093759;28;20435;-70
2021/10/23 10:06:12;;;;;;;17.03;14.70;;;14.20;90.00;;;;;;5093777;28;20424;-70
2021/10/23 10:08:39;;;;;;;19.30;14.10;;;14.40;89.40;;;;;;5093981;28;20438;-70
2021/10/23 10:11:05;;;;;;;17.90;14.90;;;14.60;88.60;;;;;;5093947;28;20546;-70
2021/10/23 10:13:34;;;;;;;17.03;14.77;;;14.80;87.40;;;;;;5093893;28;20435;-70
2021/10/23 10:16:02;;;;;;;16.53;14.73;;;14.90;86.90;;;;;;5093983;28;20443;-70
2021/10/23 10:18:29;;;;;;;17.63;15.03;;;15.10;86.00;;;;;;5093423;28;20916;-70
2021/10/23 10:20:57;;;;;;;19.57;14.77;;;15.20;85.10;;;;;;5094174;28;20482;-70
2021/10/23 10:23:32;;;;;;;18.03;13.43;;;15.40;84.90;;;;;;5093820;28;20444;-70
2021/10/23 10:26:27;;;;;;;15.70;13.40;;;15.50;85.10;;;;;;5093983;28;20799;-70
2021/10/23 10:29:38;;;;;;;16.33;13.20;;;15.60;81.10;;;;;;5093945;28;20507;-69
2021/10/23 10:32:17;;;;;;;15.53;13.83;;;15.50;82.20;;;;;;5031183;28;20541;-70
2021/10/23 10:37:58;;;;;;;17.20;14.00;;;15.50;83.10;;;;;;5085653;28;20917;-70
2021/10/23 10:43:17;;;;;;;13.73;12.30;;;15.40;82.20;;;;;;5093952;28;20908;-71
2021/10/23 10:45:56;;;;;;;16.20;12.70;;;15.50;81.50;;;;;;5093723;28;20424;-70
2021/10/23 10:48:36;;;;;;;24.30;21.67;;;15.50;81.70;;;;;;5093920;28;20424;-70
2021/10/23 10:51:29;;;;;;;30.73;28.13;;;15.60;82.40;;;;;;5093793;28;20466;-70
2021/10/23 10:54:07;;;;;;;16.37;13.03;;;15.70;82.30;;;;;;5093586;28;20519;-71
2021/10/23 10:56:50;;;;;;;16.83;14.37;;;15.90;81.70;;;;;;5093213;28;20996;-71
2021/10/23 10:59:55;;;;;;;14.97;12.63;;;16.10;80.60;;;;;;5092998;28;20988;-69
2021/10/23 11:02:35;;;;;;;19.53;17.43;;;16.30;78.50;;;;;;5094003;28;20781;-69
2021/10/23 11:05:18;;;;;;;17.47;12.20;;;16.40;78.70;;;;;;5093661;28;20788;-70
2021/10/23 11:08:06;;;;;;;15.13;11.07;;;16.60;76.90;;;;;;5094349;28;20501;-70
2021/10/23 11:10:57;;;;;;;15.50;10.80;;;16.70;74.20;;;;;;5097370;28;20465;-70
2021/10/23 11:13:26;;;;;;;11.13;9.80;;;16.60;75.80;;;;;;5098267;28;20443;-70
2021/10/23 11:15:53;;;;;;;10.90;9.17;;;16.60;74.30;;;;;;5097961;28;20438;-70
2021/10/23 11:18:20;;;;;;;12.93;9.40;;;16.80;73.70;;;;;;5098663;28;20451;-71
2021/10/23 11:20:47;;;;;;;13.90;12.37;;;16.80;74.50;;;;;;5097964;28;20483;-70
2021/10/23 11:23:20;;;;;;;12.63;11.33;;;17.00;75.60;;;;;;5098000;28;20462;-71
2021/10/23 11:25:47;;;;;;;13.70;9.97;;;17.30;74.70;;;;;;5097820;28;20455;-71
2021/10/23 11:28:14;;;;;;;16.10;9.77;;;17.50;71.70;;;;;;5097036;28;20490;-70
2021/10/23 11:30:43;;;;;;;11.33;8.87;;;17.60;70.20;;;;;;5096785;28;20464;-70
2021/10/23 11:33:17;;;;;;;17.30;10.03;;;17.60;70.70;;;;;;5096507;28;20929;-70
2021/10/23 11:35:46;;;;;;;12.00;10.50;;;17.70;71.10;;;;;;5096411;28;20907;-70
2021/10/23 11:38:19;;;;;;;13.57;10.10;;;17.60;70.10;;;;;;5096803;28;20436;-70
2021/10/23 11:40:47;;;;;;;14.43;8.70;;;17.40;69.80;;;;;;5096655;28;20487;-70
2021/10/23 11:43:15;;;;;;;12.20;9.23;;;17.30;71.20;;;;;;5096714;28;20470;-69
2021/10/23 11:45:45;;;;;;;13.17;8.37;;;17.40;71.90;;;;;;5096783;28;20841;-70
2021/10/23 11:48:12;;;;;;;12.97;7.87;;;17.50;71.00;;;;;;5097328;28;20444;-70
2021/10/23 11:50:41;;;;;;;11.67;8.33;;;17.60;69.90;;;;;;5097044;28;20469;-69
2021/10/23 11:53:12;;;;;;;9.90;8.30;;;17.70;69.50;;;;;;5097470;28;20439;-70
2021/10/23 11:55:41;;;;;;;9.73;7.13;;;17.70;69.80;;;;;;5097125;28;20439;-70
2021/10/23 11:58:09;;;;;;;12.63;8.17;;;17.90;70.00;;;;;;5096608;28;20452;-70
2021/10/23 12:00:38;;;;;;;10.20;7.57;;;18.00;69.90;;;;;;5096699;28;20484;-69
2021/10/23 12:03:09;;;;;;;10.27;6.80;;;18.20;69.40;;;;;;5098148;28;20554;-69
2021/10/23 12:05:39;;;;;;;10.90;7.57;;;18.40;68.70;;;;;;5097340;28;20523;-69
2021/10/23 12:08:27;;;;;;;7.30;6.40;;;18.60;67.70;;;;;;5097641;28;20936;-70
2021/10/23 12:11:13;;;;;;;9.43;7.20;;;18.70;66.60;;;;;;5097015;28;20499;-70
2021/10/23 12:13:50;;;;;;;8.80;6.33;;;18.90;63.90;;;;;;5097206;28;20450;-70
2021/10/23 12:16:19;;;;;;;9.57;5.50;;;18.80;62.50;;;;;;5098043;28;20435;-70
2021/10/23 12:18:59;;;;;;;6.83;5.20;;;18.90;62.60;;;;;;5097037;28;20465;-70
2021/10/23 12:21:25;;;;;;;10.03;5.30;;;18.80;60.40;;;;;;5096440;28;20477;-69
2021/10/23 12:23:54;;;;;;;8.70;5.13;;;18.70;60.40;;;;;;5096164;28;20440;-69
2021/10/23 12:26:25;;;;;;;7.20;4.93;;;18.50;60.50;;;;;;5096662;28;20440;-70
2021/10/23 12:29:00;;;;;;;9.87;5.00;;;18.40;62.70;;;;;;5096477;28;20424;-69
2021/10/23 12:31:27;;;;;;;9.47;5.00;;;18.30;63.30;;;;;;5096125;28;20427;-71
2021/10/23 12:34:06;;;;;;;6.83;5.60;;;18.20;64.10;;;;;;5096436;28;20467;-71
2021/10/23 12:36:34;;;;;;;9.60;5.70;;;18.30;61.20;;;;;;5096278;28;20462;-70
2021/10/23 12:39:20;;;;;;;9.67;6.43;;;18.00;60.80;;;;;;5095696;28;20443;-70
2021/10/23 12:41:47;;;;;;;9.97;5.77;;;17.80;62.90;;;;;;5095766;28;20805;-71
2021/10/23 12:44:16;;;;;;;7.20;5.27;;;17.70;62.50;;;;;;5096088;28;20446;-71
2021/10/23 12:46:43;;;;;;;11.00;5.27;;;17.60;64.10;;;;;;5095846;28;20811;-70
2021/10/23 12:49:11;;;;;;;9.07;5.07;;;17.50;65.00;;;;;;5095990;28;20469;-70
2021/10/23 12:51:37;;;;;;;7.17;4.40;;;17.40;65.10;;;;;;5096021;28;20444;-71